createdAt,value
2022-11-20T00:00:19.639Z,4.18
2022-11-20T00:02:45.991Z,3.25
2022-11-20T00:05:12.317Z,2.33
2022-11-20T00:07:38.643Z,3.58
2022-11-20T00:10:05.406Z,3.03
2022-11-20T00:12:32.121Z,1.98
2022-11-20T00:14:58.459Z,2.33
2022-11-20T00:17:24.794Z,1.40
2022-11-20T00:19:51.087Z,1.40
2022-11-20T00:22:17.439Z,1.70
2022-11-20T00:24:43.807Z,1.40
2022-11-20T00:27:10.195Z,1.20
2022-11-20T00:29:36.603Z,1.88
2022-11-20T00:32:03.147Z,2.08
2022-11-20T00:34:29.443Z,1.20
2022-11-20T00:36:55.783Z,0.90
2022-11-20T00:39:22.599Z,0.90
2022-11-20T00:41:48.999Z,1.00
2022-11-20T00:44:15.379Z,1.02
2022-11-20T00:46:41.807Z,0.93
2022-11-20T00:49:08.252Z,0.88
2022-11-20T00:51:34.654Z,1.10
2022-11-20T00:54:03.035Z,1.70
2022-11-20T00:56:29.761Z,1.83
2022-11-20T00:58:56.179Z,2.00
2022-11-20T01:01:25.408Z,1.50
2022-11-20T01:03:52.966Z,1.30
2022-11-20T01:06:20.907Z,1.45
2022-11-20T01:08:47.933Z,1.17
2022-11-20T01:11:18.682Z,1.50
2022-11-20T01:13:46.044Z,1.63
2022-11-20T01:16:21.197Z,1.80
2022-11-20T01:18:48.799Z,1.80
2022-11-20T01:21:16.989Z,1.33
2022-11-20T01:23:43.964Z,1.30
2022-11-20T01:26:11.516Z,1.10
2022-11-20T01:28:38.146Z,1.15
2022-11-20T01:31:18.275Z,1.30
2022-11-20T01:33:45.312Z,1.38
2022-11-20T01:36:12.038Z,1.80
2022-11-20T01:38:38.717Z,1.42
2022-11-20T01:41:05.216Z,1.77
2022-11-20T01:43:31.664Z,2.00
2022-11-20T01:45:59.984Z,1.85
2022-11-20T01:48:29.318Z,1.30
2022-11-20T01:50:56.067Z,1.70
2022-11-20T01:53:25.329Z,2.00
2022-11-20T01:55:54.250Z,1.83
2022-11-20T01:58:22.555Z,1.35
2022-11-20T02:00:49.144Z,1.00
2022-11-20T02:03:17.391Z,0.80
2022-11-20T02:06:03.873Z,0.60
2022-11-20T02:08:30.434Z,0.73
2022-11-20T02:10:56.795Z,0.73
2022-11-20T02:13:41.996Z,0.85
2022-11-20T02:16:23.374Z,1.35
2022-11-20T02:18:50.310Z,0.75
2022-11-20T02:21:22.704Z,0.60
2022-11-20T02:23:55.055Z,2.83
2022-11-20T02:26:22.931Z,2.95
2022-11-20T02:28:49.655Z,3.35
2022-11-20T02:31:16.028Z,1.88
2022-11-20T02:33:42.329Z,1.95
2022-11-20T02:36:11.537Z,1.52
2022-11-20T02:38:38.121Z,1.40
2022-11-20T02:41:04.502Z,1.20
2022-11-20T02:43:30.832Z,0.82
2022-11-20T02:45:57.234Z,0.90
2022-11-20T02:48:25.211Z,0.77
2022-11-20T02:50:51.789Z,0.50
2022-11-20T02:53:18.099Z,1.30
2022-11-20T02:55:44.444Z,1.77
2022-11-20T02:58:11.013Z,2.17
2022-11-20T03:00:37.389Z,1.88
2022-11-20T03:03:03.802Z,1.95
2022-11-20T03:05:30.136Z,2.13
2022-11-20T03:07:56.494Z,1.40
2022-11-20T03:10:22.883Z,1.20
2022-11-20T03:12:53.318Z,1.20
2022-11-20T03:15:19.783Z,2.53
2022-11-20T03:17:46.058Z,1.40
2022-11-20T03:20:12.611Z,1.33
2022-11-20T03:22:39.070Z,1.00
2022-11-20T03:25:05.593Z,0.80
2022-11-20T03:27:35.772Z,0.70
2022-11-20T03:30:02.215Z,0.80
2022-11-20T03:32:28.540Z,0.65
2022-11-20T03:34:54.835Z,0.68
2022-11-20T03:37:21.321Z,1.20
2022-11-20T03:39:47.653Z,0.90
2022-11-20T03:42:32.887Z,0.60
2022-11-20T03:44:59.194Z,0.90
2022-11-20T03:47:25.567Z,2.95
2022-11-20T03:49:51.910Z,3.55
2022-11-20T03:52:18.195Z,3.25
2022-11-20T03:54:44.469Z,1.55
2022-11-20T03:57:10.867Z,1.48
2022-11-20T03:59:37.146Z,1.02
2022-11-20T04:02:03.534Z,1.20
2022-11-20T04:04:29.947Z,1.15
2022-11-20T04:06:56.253Z,2.10
2022-11-20T04:09:22.858Z,3.50
2022-11-20T04:11:49.563Z,2.40
2022-11-20T04:14:16.756Z,2.08
2022-11-20T04:16:43.569Z,2.85
2022-11-20T04:19:11.053Z,1.80
2022-11-20T04:21:37.354Z,1.58
2022-11-20T04:24:03.868Z,1.40
2022-11-20T04:26:30.862Z,1.00
2022-11-20T04:28:57.667Z,0.95
2022-11-20T04:31:28.155Z,0.73
2022-11-20T04:33:54.499Z,0.65
2022-11-20T04:36:25.511Z,0.60
2022-11-20T04:38:57.360Z,0.40
2022-11-20T04:43:50.724Z,0.90
2022-11-20T04:46:17.831Z,1.00
2022-11-20T04:48:44.421Z,0.98
2022-11-20T04:51:11.074Z,0.70
2022-11-20T04:53:37.485Z,4.70
2022-11-20T04:56:05.134Z,4.70
2022-11-20T04:58:31.740Z,2.80
2022-11-20T05:01:01.963Z,3.00
2022-11-20T05:03:28.321Z,2.13
2022-11-20T05:05:54.662Z,3.05
2022-11-20T05:08:21.019Z,6.82
2022-11-20T05:10:47.440Z,3.10
2022-11-20T05:13:13.725Z,2.35
2022-11-20T05:15:40.167Z,1.70
2022-11-20T05:18:06.515Z,2.03
2022-11-20T05:20:32.815Z,1.85
2022-11-20T05:22:59.230Z,2.20
2022-11-20T05:25:25.514Z,1.95
2022-11-20T05:27:51.807Z,1.75
2022-11-20T05:30:18.164Z,1.10
2022-11-20T05:32:44.541Z,0.80
2022-11-20T05:35:10.854Z,0.70
2022-11-20T05:37:37.200Z,0.60
2022-11-20T05:40:03.626Z,1.13
2022-11-20T05:42:33.241Z,0.65
2022-11-20T05:45:00.222Z,0.68
2022-11-20T05:47:27.437Z,1.10
2022-11-20T05:49:53.842Z,1.98
2022-11-20T05:52:20.592Z,1.55
2022-11-20T05:54:46.943Z,2.67
2022-11-20T05:57:13.293Z,3.28
2022-11-20T05:59:39.632Z,3.42
2022-11-20T06:02:06.073Z,3.10
2022-11-20T06:04:32.479Z,2.75
2022-11-20T06:06:58.808Z,2.90
2022-11-20T06:09:25.091Z,4.15
2022-11-20T06:11:51.464Z,4.55
2022-11-20T06:14:17.876Z,4.35
2022-11-20T06:16:44.368Z,4.00
2022-11-20T06:19:10.708Z,5.40
2022-11-20T06:21:37.126Z,6.90
2022-11-20T06:24:03.544Z,7.78
2022-11-20T06:26:31.064Z,5.43
2022-11-20T06:28:57.418Z,7.97
2022-11-20T06:31:24.498Z,7.53
2022-11-20T06:33:51.495Z,4.82
2022-11-20T06:36:19.100Z,3.17
2022-11-20T06:38:45.549Z,2.20
2022-11-20T06:41:13.223Z,1.90
2022-11-20T06:43:39.856Z,1.50
2022-11-20T06:46:06.492Z,0.80
2022-11-20T06:48:33.303Z,1.08
2022-11-20T06:50:59.701Z,1.60
2022-11-20T06:53:26.377Z,2.47
2022-11-20T06:55:53.301Z,1.38
2022-11-20T06:58:20.202Z,1.13
2022-11-20T07:00:46.944Z,1.40
2022-11-20T07:03:13.771Z,1.85
2022-11-20T07:05:41.285Z,1.10
2022-11-20T07:08:08.138Z,1.30
2022-11-20T07:10:34.645Z,2.33
2022-11-20T07:13:01.067Z,1.70
2022-11-20T07:15:27.913Z,1.30
2022-11-20T07:17:54.306Z,3.17
2022-11-20T07:20:20.692Z,2.05
2022-11-20T07:22:47.044Z,1.30
2022-11-20T07:25:13.373Z,1.35
2022-11-20T07:27:39.797Z,0.73
2022-11-20T07:30:06.409Z,1.40
2022-11-20T07:32:32.772Z,1.15
2022-11-20T07:34:59.283Z,1.23
2022-11-20T07:37:25.635Z,1.08
2022-11-20T07:39:51.928Z,0.90
2022-11-20T07:42:18.355Z,0.90
2022-11-20T07:44:44.771Z,0.75
2022-11-20T07:47:11.103Z,0.52
2022-11-20T07:49:37.467Z,0.38
2022-11-20T07:52:05.346Z,0.50
2022-11-20T07:54:31.814Z,0.80
2022-11-20T07:56:58.127Z,0.30
2022-11-20T07:59:24.547Z,0.50
2022-11-20T08:01:50.968Z,0.60
2022-11-20T08:04:17.593Z,0.40
2022-11-20T08:06:43.970Z,0.80
2022-11-20T08:09:10.664Z,1.58
2022-11-20T08:11:55.794Z,1.67
2022-11-20T08:14:22.194Z,1.10
2022-11-20T08:16:49.223Z,1.10
2022-11-20T08:19:16.423Z,0.90
2022-11-20T08:21:46.232Z,0.60
2022-11-20T08:24:12.780Z,1.08
2022-11-20T08:26:39.726Z,0.90
2022-11-20T08:29:06.224Z,1.35
2022-11-20T08:31:33.028Z,0.90
2022-11-20T08:33:59.635Z,0.50
2022-11-20T08:36:26.232Z,1.00
2022-11-20T08:38:53.655Z,1.10
2022-11-20T08:41:26.845Z,0.93
2022-11-20T08:44:04.221Z,1.17
2022-11-20T08:46:38.934Z,1.50
2022-11-20T08:49:06.948Z,2.70
2022-11-20T08:51:33.560Z,2.78
2022-11-20T08:54:00.027Z,2.67
2022-11-20T08:56:26.521Z,3.28
2022-11-20T08:59:20.184Z,2.38
2022-11-20T09:01:40.548Z,3.05
2022-11-20T09:04:06.912Z,4.15
2022-11-20T09:06:33.311Z,3.72
2022-11-20T09:09:03.469Z,4.35
2022-11-20T09:11:32.893Z,3.83
2022-11-20T09:13:59.281Z,3.72
2022-11-20T09:16:25.602Z,3.28
2022-11-20T09:19:07.271Z,2.17
2022-11-20T09:21:38.429Z,1.73
2022-11-20T09:24:05.755Z,2.50
2022-11-20T09:26:32.100Z,2.40
2022-11-20T09:28:58.604Z,2.08
2022-11-20T09:31:27.039Z,1.67
2022-11-20T09:33:53.403Z,1.13
2022-11-20T09:36:19.787Z,1.80
2022-11-20T09:38:46.615Z,1.60
2022-11-20T09:41:31.860Z,1.63
2022-11-20T09:43:58.184Z,1.20
2022-11-20T09:46:30.002Z,1.60
2022-11-20T09:49:05.082Z,1.88
2022-11-20T09:51:57.724Z,1.77
2022-11-20T09:54:27.809Z,1.73
2022-11-20T09:57:01.039Z,1.85
2022-11-20T09:59:34.764Z,1.80
2022-11-20T10:02:01.842Z,2.10
2022-11-20T10:04:29.007Z,1.20
2022-11-20T10:07:32.636Z,1.70
2022-11-20T10:10:00.046Z,0.90
2022-11-20T10:12:31.423Z,1.10
2022-11-20T10:14:57.680Z,2.72
2022-11-20T10:17:42.600Z,1.27
2022-11-20T10:20:25.791Z,1.20
2022-11-20T10:22:52.314Z,1.33
2022-11-20T10:25:25.250Z,1.30
2022-11-20T10:27:51.900Z,2.50
2022-11-20T10:30:20.938Z,1.73
2022-11-20T10:32:53.125Z,2.40
2022-11-20T10:35:24.878Z,3.25
2022-11-20T10:38:02.815Z,1.48
2022-11-20T10:40:29.169Z,4.22
2022-11-20T10:43:18.841Z,5.53
2022-11-20T10:45:56.333Z,6.25
2022-11-20T10:48:26.919Z,2.90
2022-11-20T10:50:56.320Z,4.15
2022-11-20T10:53:22.691Z,4.47
2022-11-20T10:55:58.426Z,4.55
2022-11-20T10:58:37.059Z,3.13
2022-11-20T11:01:07.084Z,3.47
2022-11-20T11:03:33.696Z,3.55
2022-11-20T11:06:13.395Z,2.97
2022-11-20T11:08:40.284Z,4.05
2022-11-20T11:11:16.278Z,2.72
2022-11-20T11:13:42.560Z,2.95
2022-11-20T11:16:20.516Z,3.55
2022-11-20T11:18:46.860Z,2.53
2022-11-20T11:21:13.214Z,2.22
2022-11-20T11:23:39.657Z,1.50
2022-11-20T11:26:07.159Z,2.30
2022-11-20T11:28:33.765Z,3.20
2022-11-20T11:31:00.154Z,2.20
2022-11-20T11:33:27.556Z,1.58
2022-11-20T11:35:59.196Z,1.52
2022-11-20T11:38:28.403Z,1.55
2022-11-20T11:40:55.172Z,2.58
2022-11-20T11:43:42.108Z,2.80
2022-11-20T11:46:20.800Z,3.42
2022-11-20T11:49:16.734Z,2.85
2022-11-20T11:51:48.553Z,4.72
2022-11-20T11:54:21.388Z,4.30
2022-11-20T11:56:47.867Z,5.47
2022-11-20T11:59:18.282Z,3.72
2022-11-20T12:02:11.131Z,4.45
2022-11-20T12:04:40.509Z,3.40
2022-11-20T12:07:51.358Z,2.88
2022-11-20T12:10:29.556Z,4.03
2022-11-20T12:13:01.270Z,3.70
2022-11-20T12:15:30.835Z,4.90
2022-11-20T12:17:57.277Z,3.35
2022-11-20T12:20:26.415Z,2.78
2022-11-20T12:23:00.715Z,4.68
2022-11-20T12:25:30.176Z,3.03
2022-11-20T12:27:56.720Z,4.13
2022-11-20T12:30:23.313Z,3.65
2022-11-20T12:33:00.085Z,5.28
2022-11-20T12:35:32.673Z,6.78
2022-11-20T12:38:17.446Z,7.72
2022-11-20T12:41:02.101Z,5.43
2022-11-20T12:43:48.967Z,4.57
2022-11-20T12:46:19.148Z,4.28
2022-11-20T12:48:46.593Z,5.85
2022-11-20T12:51:25.458Z,6.68
2022-11-20T12:54:02.023Z,5.55
2022-11-20T12:56:44.673Z,6.85
2022-11-20T12:59:30.049Z,3.80
2022-11-20T13:02:11.586Z,4.03
2022-11-20T13:04:44.944Z,5.47
2022-11-20T13:07:13.588Z,4.25
2022-11-20T13:09:45.779Z,4.07
2022-11-20T13:12:15.277Z,4.20
2022-11-20T13:14:46.346Z,4.15
2022-11-20T13:17:15.961Z,4.05
2022-11-20T13:19:42.630Z,4.07
2022-11-20T13:22:09.632Z,6.70
2022-11-20T13:24:36.036Z,5.00
2022-11-20T13:27:08.559Z,4.85
2022-11-20T13:29:35.737Z,5.53
2022-11-20T13:32:22.302Z,3.35
2022-11-20T13:34:59.708Z,2.85
2022-11-20T13:37:28.736Z,3.72
2022-11-20T13:40:05.569Z,4.05
2022-11-20T13:42:31.944Z,5.63
2022-11-20T13:45:02.314Z,5.88
2022-11-20T13:47:29.264Z,8.10
2022-11-20T13:49:56.467Z,8.73
2022-11-20T13:52:41.801Z,7.88
2022-11-20T13:55:26.932Z,6.38
2022-11-20T13:57:56.215Z,6.10
2022-11-20T14:00:23.985Z,7.97
2022-11-20T14:03:09.224Z,7.43
2022-11-20T14:05:36.963Z,7.70
2022-11-20T14:08:05.311Z,7.03
2022-11-20T14:10:32.526Z,5.85
2022-11-20T14:12:59.448Z,6.55
2022-11-20T14:15:30.603Z,8.38
2022-11-20T14:17:57.400Z,6.80
2022-11-20T14:20:26.424Z,5.28
2022-11-20T14:22:53.411Z,4.60
2022-11-20T14:25:24.135Z,5.85
2022-11-20T14:28:00.879Z,6.22
2022-11-20T14:30:28.804Z,5.07
2022-11-20T14:32:56.811Z,4.90
2022-11-20T14:35:27.410Z,5.72
2022-11-20T14:37:54.086Z,5.72
2022-11-20T14:40:26.175Z,7.15
2022-11-20T14:45:19.329Z,5.55
2022-11-20T14:47:46.012Z,5.80
2022-11-20T14:50:14.260Z,5.20
2022-11-20T14:52:50.518Z,9.68
2022-11-20T14:55:25.853Z,8.00
2022-11-20T14:57:55.814Z,5.78
2022-11-20T15:00:22.683Z,4.75
2022-11-20T15:02:50.148Z,5.63
2022-11-20T15:05:17.413Z,6.10
2022-11-20T15:07:48.323Z,5.43
2022-11-20T15:10:25.059Z,5.38
2022-11-20T15:12:52.629Z,4.80
2022-11-20T15:15:25.959Z,4.78
2022-11-20T15:17:52.488Z,5.03
2022-11-20T15:20:18.937Z,5.82
2022-11-20T15:22:45.296Z,5.38
2022-11-20T15:25:15.768Z,5.57
2022-11-20T15:27:43.071Z,4.88
2022-11-20T15:30:19.839Z,4.18
2022-11-20T15:32:47.039Z,3.85
2022-11-20T15:35:13.891Z,4.82
2022-11-20T15:37:41.199Z,5.07
2022-11-20T15:40:08.454Z,4.60
2022-11-20T15:42:35.450Z,6.43
2022-11-20T15:45:02.294Z,4.78
2022-11-20T15:47:34.712Z,4.55
2022-11-20T15:50:01.210Z,7.38
2022-11-20T15:52:30.542Z,6.95
2022-11-20T15:55:08.276Z,6.32
2022-11-20T15:57:35.995Z,6.35
2022-11-20T16:00:02.290Z,7.20
2022-11-20T16:02:28.655Z,7.10
2022-11-20T16:04:54.981Z,5.95
2022-11-20T16:07:21.359Z,4.60
2022-11-20T16:09:47.751Z,2.40
2022-11-20T16:12:34.189Z,1.77
2022-11-20T16:15:19.156Z,2.22
2022-11-20T16:17:45.621Z,2.90
2022-11-20T16:20:12.523Z,3.42
2022-11-20T16:22:38.886Z,2.08
2022-11-20T16:25:05.521Z,5.10
2022-11-20T16:27:31.912Z,3.88
2022-11-20T16:29:58.303Z,2.90
2022-11-20T16:32:24.880Z,2.20
2022-11-20T16:34:51.281Z,2.08
2022-11-20T16:37:17.573Z,1.80
2022-11-20T16:39:43.890Z,1.60
2022-11-20T16:42:10.324Z,1.17
2022-11-20T16:44:36.687Z,2.17
2022-11-20T16:47:03.520Z,3.08
2022-11-20T16:49:29.935Z,2.42
2022-11-20T16:51:56.244Z,9.13
2022-11-20T16:54:23.190Z,7.07
2022-11-20T16:56:51.882Z,4.28
2022-11-20T16:59:18.300Z,4.43
2022-11-20T17:01:44.874Z,3.22
2022-11-20T17:04:11.319Z,3.85
2022-11-20T17:06:40.259Z,4.07
2022-11-20T17:09:09.718Z,4.28
2022-11-20T17:11:36.593Z,7.65
2022-11-20T17:14:09.565Z,8.23
2022-11-20T17:16:36.781Z,6.50
2022-11-20T17:19:04.113Z,4.75
2022-11-20T17:21:33.770Z,5.30
2022-11-20T17:24:00.868Z,5.30
2022-11-20T17:26:28.385Z,3.75
2022-11-20T17:28:56.175Z,3.97
2022-11-20T17:31:23.108Z,3.60
2022-11-20T17:33:49.517Z,4.28
2022-11-20T17:36:17.056Z,4.50
2022-11-20T17:38:44.515Z,4.82
2022-11-20T17:41:18.241Z,4.85
2022-11-20T17:43:44.587Z,4.65
2022-11-20T17:46:12.805Z,3.40
2022-11-20T17:48:42.351Z,3.20
2022-11-20T17:51:09.698Z,3.30
2022-11-20T17:53:37.848Z,4.10
2022-11-20T17:56:23.078Z,3.75
2022-11-20T17:58:49.567Z,3.58
2022-11-20T18:01:16.580Z,3.13
2022-11-20T18:03:42.928Z,3.00
2022-11-20T18:06:10.637Z,2.90
2022-11-20T18:08:37.030Z,3.15
2022-11-20T18:11:13.829Z,2.88
2022-11-20T18:13:59.843Z,2.83
2022-11-20T18:16:27.024Z,2.80
2022-11-20T18:18:54.177Z,3.30
2022-11-20T18:21:20.569Z,2.90
2022-11-20T18:23:46.932Z,2.70
2022-11-20T18:26:13.446Z,2.22
2022-11-20T18:28:39.785Z,3.40
2022-11-20T18:31:07.981Z,2.90
2022-11-20T18:33:36.211Z,2.70
2022-11-20T18:36:29.073Z,2.85
2022-11-20T18:38:56.599Z,2.20
2022-11-20T18:41:42.750Z,1.80
2022-11-20T18:44:40.764Z,1.92
2022-11-20T18:47:14.154Z,1.70
2022-11-20T18:49:41.705Z,1.60
2022-11-20T18:52:08.116Z,1.20
2022-11-20T18:54:37.528Z,1.40
2022-11-20T18:57:04.500Z,1.40
2022-11-20T18:59:31.410Z,1.25
2022-11-20T19:01:58.042Z,1.50
2022-11-20T19:04:24.598Z,1.48
2022-11-20T19:06:53.291Z,1.25
2022-11-20T19:09:19.631Z,1.10
2022-11-20T19:11:45.915Z,1.10
2022-11-20T19:14:12.306Z,1.52
2022-11-20T19:16:38.626Z,1.60
2022-11-20T19:19:05.552Z,2.55
2022-11-20T19:21:31.994Z,1.55
2022-11-20T19:23:59.837Z,1.85
2022-11-20T19:26:26.577Z,1.33
2022-11-20T19:28:53.707Z,1.48
2022-11-20T19:31:24.411Z,1.50
2022-11-20T19:33:54.953Z,1.43
2022-11-20T19:36:24.375Z,1.13
2022-11-20T19:38:51.176Z,1.30
2022-11-20T19:41:18.609Z,1.90
2022-11-20T19:43:46.317Z,1.70
2022-11-20T19:46:12.868Z,1.23
2022-11-20T19:48:39.354Z,1.10
2022-11-20T19:51:09.585Z,1.30
2022-11-20T19:53:36.968Z,1.30
2022-11-20T19:56:03.695Z,1.10
2022-11-20T19:58:30.442Z,1.10
2022-11-20T20:00:56.893Z,1.30
2022-11-20T20:03:23.678Z,1.50
2022-11-20T20:05:50.219Z,1.65
2022-11-20T20:08:17.222Z,1.30
2022-11-20T20:10:43.848Z,1.40
2022-11-20T20:13:10.275Z,1.50
2022-11-20T20:15:39.852Z,1.40
2022-11-20T20:18:06.214Z,1.20
2022-11-20T20:20:32.701Z,1.10
2022-11-20T20:22:59.049Z,1.20
2022-11-20T20:25:25.522Z,1.20
2022-11-20T20:27:51.818Z,1.38
2022-11-20T20:30:18.118Z,1.15
2022-11-20T20:32:44.538Z,1.35
2022-11-20T20:35:10.873Z,1.42
2022-11-20T20:37:37.486Z,1.27
2022-11-20T20:40:04.087Z,1.70
2022-11-20T20:42:31.790Z,1.38
2022-11-20T20:45:07.373Z,1.33
2022-11-20T20:47:34.696Z,1.50
2022-11-20T20:50:01.213Z,2.13
2022-11-20T20:52:27.790Z,1.30
2022-11-20T20:54:54.697Z,1.30
2022-11-20T20:57:22.588Z,1.30
2022-11-20T20:59:58.295Z,1.20
2022-11-20T21:02:25.060Z,1.80
2022-11-20T21:04:51.739Z,1.70
2022-11-20T21:07:18.377Z,1.75
2022-11-20T21:09:44.832Z,1.60
2022-11-20T21:12:11.371Z,1.73
2022-11-20T21:14:37.788Z,2.10
2022-11-20T21:17:04.099Z,1.83
2022-11-20T21:19:30.389Z,1.77
2022-11-20T21:21:59.842Z,1.48
2022-11-20T21:24:30.689Z,1.20
2022-11-20T21:26:57.527Z,1.50
2022-11-20T21:29:26.740Z,1.63
2022-11-20T21:31:54.016Z,1.27
2022-11-20T21:34:21.215Z,1.27
2022-11-20T21:36:48.158Z,1.75
2022-11-20T21:39:14.880Z,1.58
2022-11-20T21:41:41.937Z,0.90
2022-11-20T21:46:57.943Z,1.08
2022-11-20T21:49:24.506Z,1.05
2022-11-20T21:51:50.991Z,2.88
2022-11-20T21:54:17.650Z,1.00
2022-11-20T21:56:44.114Z,0.70
2022-11-20T21:59:12.133Z,0.77
2022-11-20T22:01:38.972Z,1.00
2022-11-20T22:04:07.911Z,1.20
2022-11-20T22:06:34.641Z,1.00
2022-11-20T22:09:01.711Z,0.93
2022-11-20T22:11:28.186Z,1.00
2022-11-20T22:14:13.341Z,1.35
2022-11-20T22:16:39.919Z,1.35
2022-11-20T22:19:06.712Z,1.00
2022-11-20T22:21:33.551Z,0.70
2022-11-20T22:24:01.498Z,1.00
2022-11-20T22:26:34.955Z,1.20
2022-11-20T22:29:05.323Z,1.02
2022-11-20T22:31:31.931Z,1.10
2022-11-20T22:33:58.959Z,1.40
2022-11-20T22:36:27.979Z,1.45
2022-11-20T22:38:54.575Z,1.10
2022-11-20T22:41:22.171Z,1.10
2022-11-20T22:43:48.764Z,1.10
2022-11-20T22:46:18.894Z,1.40
2022-11-20T22:48:52.896Z,1.02
2022-11-20T22:51:20.590Z,0.90
2022-11-20T22:53:47.329Z,0.80
2022-11-20T22:56:14.311Z,0.90
2022-11-20T22:58:41.554Z,0.93
2022-11-20T23:01:10.961Z,1.10
2022-11-20T23:03:38.273Z,0.90
2022-11-20T23:06:05.175Z,0.70
2022-11-20T23:08:31.631Z,1.58
2022-11-20T23:10:58.912Z,0.90
2022-11-20T23:13:25.200Z,1.13
2022-11-20T23:15:51.621Z,1.23
2022-11-20T23:18:18.228Z,0.80
2022-11-20T23:20:44.602Z,0.90
2022-11-20T23:23:11.032Z,1.00
2022-11-20T23:25:37.583Z,1.15
2022-11-20T23:28:04.119Z,1.38
2022-11-20T23:30:30.607Z,1.02
2022-11-20T23:32:57.031Z,1.20
2022-11-20T23:35:23.457Z,1.00
2022-11-20T23:37:49.908Z,1.42
2022-11-20T23:40:16.345Z,1.13
2022-11-20T23:43:02.804Z,0.93
2022-11-20T23:45:29.223Z,2.15
2022-11-20T23:47:55.729Z,1.55
2022-11-20T23:50:22.082Z,1.30
2022-11-20T23:52:48.444Z,1.60
2022-11-20T23:55:14.806Z,1.10
2022-11-20T23:57:41.131Z,1.15
